UIQ weather

Quion Hill Airport
Quion Hill, Shefa, Vanuatu

Public forecast

Using degrees Celsius for public forecast. Weather courtesy of forecast.io.

METAR (pilot weather report)

Closest report is Bauerfield International Airport, 11.8 nm (21.9 km) SW. Retrieved 2019/06/15 19:00 UTC (56 minutes ago):

NVVV 151900Z 02004KT 9999 SCT020 BKN040 19/18 Q1015

TAF (pilot weather forecast)

Closest forecast is Bauerfield International Airport, 11.8 nm (21.9 km) SW. Retrieved 2019/06/15 18:15 UTC (2 hours ago):

TAF TAF NVVV 151600Z 1518/1618 12014KT 9999 SCT020 BKN040 INTER 1518/1524 9000 -SHRA BKN018